Terminal Aerodrome Forecast
Issued by NWS

Home | Current Version | Previous Version | Graphics & Text | Print | Product List | Glossary On
Versions: 1 2 3 4 5 6 7 8 9 10 11 12 13 14 15 16 17
000
FTUS43 KBIS 180535
TAFDIK
TAF
KDIK 180535Z 1806/1906 22015G22KT P6SM BKN250 WS020/25045KT
     FM180700 27017G24KT P6SM SCT250 WS020/28050KT
     FM180900 30023G32KT P6SM SCT250 WS020/30050KT
     FM181300 30017KT P6SM FEW130 SCT250 WS020/30030KT
     FM181700 30018G26KT P6SM FEW120 SCT250
     FM182200 26013G18KT P6SM FEW120 FEW250
     FM190100 22006KT P6SM FEW110 FEW250=

USA.gov is the U.S. government's official web portal to all federal, state and local government web resources and services.